sensor_id;sensor_type;location;lat;lon;timestamp;temperature;humidity
38241;DHT22;24037;49.536;8.500;2024-03-23T00:51:49;8.20;99.90
38241;DHT22;24037;49.536;8.500;2024-03-23T00:54:15;8.20;99.90
38241;DHT22;24037;49.536;8.500;2024-03-23T00:56:42;8.20;99.90
38241;DHT22;24037;49.536;8.500;2024-03-23T00:59:09;8.40;99.90
38241;DHT22;24037;49.536;8.500;2024-03-23T01:01:35;8.50;99.90
38241;DHT22;24037;49.536;8.500;2024-03-23T01:04:02;8.60;99.90
38241;DHT22;24037;49.536;8.500;2024-03-23T01:06:29;8.70;99.90
38241;DHT22;24037;49.536;8.500;2024-03-23T01:08:56;8.80;99.90
38241;DHT22;24037;49.536;8.500;2024-03-23T01:11:22;8.90;99.90
38241;DHT22;24037;49.536;8.500;2024-03-23T01:13:48;9.00;99.90
38241;DHT22;24037;49.536;8.500;2024-03-23T01:16:15;9.10;99.90
38241;DHT22;24037;49.536;8.500;2024-03-23T01:18:41;9.20;99.90
38241;DHT22;24037;49.536;8.500;2024-03-23T01:21:07;9.40;99.90
38241;DHT22;24037;49.536;8.500;2024-03-23T01:23:34;9.50;99.90
38241;DHT22;24037;49.536;8.500;2024-03-23T01:26:00;9.60;99.90
38241;DHT22;24037;49.536;8.500;2024-03-23T01:28:26;9.70;99.90
38241;DHT22;24037;49.536;8.500;2024-03-23T01:30:52;9.70;99.90
38241;DHT22;24037;49.536;8.500;2024-03-23T01:33:19;9.80;99.90
38241;DHT22;24037;49.536;8.500;2024-03-23T01:35:46;9.80;99.90
38241;DHT22;24037;49.536;8.500;2024-03-23T01:38:12;9.90;99.90
38241;DHT22;24037;49.536;8.500;2024-03-23T01:40:38;10.00;99.90
38241;DHT22;24037;49.536;8.500;2024-03-23T01:43:06;9.90;99.90
38241;DHT22;24037;49.536;8.500;2024-03-23T01:45:36;9.90;99.90
38241;DHT22;24037;49.536;8.500;2024-03-23T01:48:03;10.00;99.90
38241;DHT22;24037;49.536;8.500;2024-03-23T01:50:31;10.00;99.90
38241;DHT22;24037;49.536;8.500;2024-03-23T01:53:02;10.00;99.90
38241;DHT22;24037;49.536;8.500;2024-03-23T01:55:29;10.10;91.10
38241;DHT22;24037;49.536;8.500;2024-03-23T01:57:56;10.10;82.60
38241;DHT22;24037;49.536;8.500;2024-03-23T02:00:24;10.10;80.10
38241;DHT22;24037;49.536;8.500;2024-03-23T02:02:51;10.10;74.20
38241;DHT22;24037;49.536;8.500;2024-03-23T02:05:17;10.00;73.50
38241;DHT22;24037;49.536;8.500;2024-03-23T02:07:43;10.00;90.80
38241;DHT22;24037;49.536;8.500;2024-03-23T02:10:10;10.00;96.50
38241;DHT22;24037;49.536;8.500;2024-03-23T02:12:39;9.90;99.90
38241;DHT22;24037;49.536;8.500;2024-03-23T02:15:05;9.90;99.90
38241;DHT22;24037;49.536;8.500;2024-03-23T02:17:34;9.90;99.90
38241;DHT22;24037;49.536;8.500;2024-03-23T02:20:00;9.80;99.90
38241;DHT22;24037;49.536;8.500;2024-03-23T02:22:37;9.90;99.90
38241;DHT22;24037;49.536;8.500;2024-03-23T02:25:04;9.90;99.90
38241;DHT22;24037;49.536;8.500;2024-03-23T02:27:32;10.10;99.90
38241;DHT22;24037;49.536;8.500;2024-03-23T02:29:58;10.40;91.70
38241;DHT22;24037;49.536;8.500;2024-03-23T02:32:25;10.80;16.70
38241;DHT22;24037;49.536;8.500;2024-03-23T02:34:51;11.10;1.00
38241;DHT22;24037;49.536;8.500;2024-03-23T02:37:17;11.20;1.00
38241;DHT22;24037;49.536;8.500;2024-03-23T02:39:43;11.40;1.00
38241;DHT22;24037;49.536;8.500;2024-03-23T02:42:09;11.40;1.00
38241;DHT22;24037;49.536;8.500;2024-03-23T02:44:36;11.60;1.00
38241;DHT22;24037;49.536;8.500;2024-03-23T02:47:02;11.60;99.90
38241;DHT22;24037;49.536;8.500;2024-03-23T02:49:28;11.70;99.90
38241;DHT22;24037;49.536;8.500;2024-03-23T02:51:55;11.70;99.90
38241;DHT22;24037;49.536;8.500;2024-03-23T02:54:21;11.80;99.90
38241;DHT22;24037;49.536;8.500;2024-03-23T02:56:47;11.90;99.90
38241;DHT22;24037;49.536;8.500;2024-03-23T02:59:13;11.90;99.90
38241;DHT22;24037;49.536;8.500;2024-03-23T03:01:40;12.00;99.90
38241;DHT22;24037;49.536;8.500;2024-03-23T03:04:06;12.00;99.90
38241;DHT22;24037;49.536;8.500;2024-03-23T03:06:32;12.10;99.90
38241;DHT22;24037;49.536;8.500;2024-03-23T03:08:58;12.10;99.90
38241;DHT22;24037;49.536;8.500;2024-03-23T03:11:25;12.20;99.90
38241;DHT22;24037;49.536;8.500;2024-03-23T03:13:51;12.20;49.20
38241;DHT22;24037;49.536;8.500;2024-03-23T03:16:17;12.40;1.00
38241;DHT22;24037;49.536;8.500;2024-03-23T03:18:44;12.50;1.00
38241;DHT22;24037;49.536;8.500;2024-03-23T03:21:12;12.50;1.00
38241;DHT22;24037;49.536;8.500;2024-03-23T03:23:39;12.60;1.00
38241;DHT22;24037;49.536;8.500;2024-03-23T03:26:06;12.50;1.00
38241;DHT22;24037;49.536;8.500;2024-03-23T03:28:33;12.50;1.00
38241;DHT22;24037;49.536;8.500;2024-03-23T03:30:59;12.50;1.00
38241;DHT22;24037;49.536;8.500;2024-03-23T03:33:27;12.40;1.00
38241;DHT22;24037;49.536;8.500;2024-03-23T03:35:53;12.40;1.00
38241;DHT22;24037;49.536;8.500;2024-03-23T03:38:20;12.30;1.00
38241;DHT22;24037;49.536;8.500;2024-03-23T03:40:46;12.20;1.00
38241;DHT22;24037;49.536;8.500;2024-03-23T03:43:12;12.10;1.00
38241;DHT22;24037;49.536;8.500;2024-03-23T03:45:38;12.00;1.00
38241;DHT22;24037;49.536;8.500;2024-03-23T03:48:05;12.10;1.00
38241;DHT22;24037;49.536;8.500;2024-03-23T03:50:31;12.10;1.00
38241;DHT22;24037;49.536;8.500;2024-03-23T03:52:57;12.20;1.00
38241;DHT22;24037;49.536;8.500;2024-03-23T03:55:24;12.30;1.00
38241;DHT22;24037;49.536;8.500;2024-03-23T03:57:50;12.40;1.00
38241;DHT22;24037;49.536;8.500;2024-03-23T04:00:16;12.30;1.00
38241;DHT22;24037;49.536;8.500;2024-03-23T04:02:43;12.30;1.00
38241;DHT22;24037;49.536;8.500;2024-03-23T04:05:09;12.30;1.00
38241;DHT22;24037;49.536;8.500;2024-03-23T04:07:35;12.30;1.00
38241;DHT22;24037;49.536;8.500;2024-03-23T04:10:01;12.30;1.00
38241;DHT22;24037;49.536;8.500;2024-03-23T04:12:28;12.20;1.00
38241;DHT22;24037;49.536;8.500;2024-03-23T04:14:54;12.20;1.00
38241;DHT22;24037;49.536;8.500;2024-03-23T04:17:21;12.20;1.00
38241;DHT22;24037;49.536;8.500;2024-03-23T04:19:47;12.20;1.00
38241;DHT22;24037;49.536;8.500;2024-03-23T04:22:14;12.10;1.00
38241;DHT22;24037;49.536;8.500;2024-03-23T04:24:41;12.10;1.00
38241;DHT22;24037;49.536;8.500;2024-03-23T04:27:08;12.20;1.00
38241;DHT22;24037;49.536;8.500;2024-03-23T04:29:34;12.20;1.00
38241;DHT22;24037;49.536;8.500;2024-03-23T04:32:00;12.20;1.00
38241;DHT22;24037;49.536;8.500;2024-03-23T04:34:27;12.20;1.00
38241;DHT22;24037;49.536;8.500;2024-03-23T04:36:53;12.10;1.00
38241;DHT22;24037;49.536;8.500;2024-03-23T04:39:20;12.10;1.00
38241;DHT22;24037;49.536;8.500;2024-03-23T04:41:46;12.20;1.00
38241;DHT22;24037;49.536;8.500;2024-03-23T04:44:12;12.10;1.00
38241;DHT22;24037;49.536;8.500;2024-03-23T04:46:39;12.00;1.00
38241;DHT22;24037;49.536;8.500;2024-03-23T04:49:05;12.00;1.00
38241;DHT22;24037;49.536;8.500;2024-03-23T04:51:35;12.00;1.00
38241;DHT22;24037;49.536;8.500;2024-03-23T04:54:03;12.00;1.00
38241;DHT22;24037;49.536;8.500;2024-03-23T04:56:31;11.90;1.00
38241;DHT22;24037;49.536;8.500;2024-03-23T04:58:58;11.90;1.00
38241;DHT22;24037;49.536;8.500;2024-03-23T05:01:28;11.90;1.00
38241;DHT22;24037;49.536;8.500;2024-03-23T05:03:54;11.80;1.00
38241;DHT22;24037;49.536;8.500;2024-03-23T05:06:20;11.70;1.00
38241;DHT22;24037;49.536;8.500;2024-03-23T05:08:46;11.70;1.00
38241;DHT22;24037;49.536;8.500;2024-03-23T05:11:13;11.70;1.00
38241;DHT22;24037;49.536;8.500;2024-03-23T05:13:39;11.70;1.00
38241;DHT22;24037;49.536;8.500;2024-03-23T05:16:05;11.60;1.00
38241;DHT22;24037;49.536;8.500;2024-03-23T05:18:32;11.50;1.00
38241;DHT22;24037;49.536;8.500;2024-03-23T05:20:58;10.90;80.40
38241;DHT22;24037;49.536;8.500;2024-03-23T05:23:25;9.70;99.90
38241;DHT22;24037;49.536;8.500;2024-03-23T05:25:52;9.10;99.90
38241;DHT22;24037;49.536;8.500;2024-03-23T05:28:19;8.80;99.90
38241;DHT22;24037;49.536;8.500;2024-03-23T05:30:52;8.60;1.00
38241;DHT22;24037;49.536;8.500;2024-03-23T05:33:20;8.60;1.00
38241;DHT22;24037;49.536;8.500;2024-03-23T05:35:46;8.50;1.00
38241;DHT22;24037;49.536;8.500;2024-03-23T05:38:13;8.30;1.00
38241;DHT22;24037;49.536;8.500;2024-03-23T05:40:40;8.30;1.00
38241;DHT22;24037;49.536;8.500;2024-03-23T05:43:06;8.30;1.00
38241;DHT22;24037;49.536;8.500;2024-03-23T05:45:33;8.20;7.80
38241;DHT22;24037;49.536;8.500;2024-03-23T05:47:59;8.20;1.00
38241;DHT22;24037;49.536;8.500;2024-03-23T05:50:25;8.20;1.00
38241;DHT22;24037;49.536;8.500;2024-03-23T05:52:52;8.20;99.90
38241;DHT22;24037;49.536;8.500;2024-03-23T05:55:18;8.20;99.90
38241;DHT22;24037;49.536;8.500;2024-03-23T05:57:45;8.20;99.90
38241;DHT22;24037;49.536;8.500;2024-03-23T06:00:11;8.10;99.90
38241;DHT22;24037;49.536;8.500;2024-03-23T06:02:43;8.10;99.90
38241;DHT22;24037;49.536;8.500;2024-03-23T06:05:12;8.00;99.90
38241;DHT22;24037;49.536;8.500;2024-03-23T06:07:38;8.10;99.90
38241;DHT22;24037;49.536;8.500;2024-03-23T06:10:06;8.10;99.90
38241;DHT22;24037;49.536;8.500;2024-03-23T06:12:32;8.10;99.90
38241;DHT22;24037;49.536;8.500;2024-03-23T06:14:58;8.10;99.90
38241;DHT22;24037;49.536;8.500;2024-03-23T06:17:24;8.10;99.90
38241;DHT22;24037;49.536;8.500;2024-03-23T06:19:51;8.10;99.90
38241;DHT22;24037;49.536;8.500;2024-03-23T06:22:17;8.20;99.90
38241;DHT22;24037;49.536;8.500;2024-03-23T06:24:44;8.20;99.90
38241;DHT22;24037;49.536;8.500;2024-03-23T06:27:10;8.20;99.90
38241;DHT22;24037;49.536;8.500;2024-03-23T06:29:36;8.30;99.90
38241;DHT22;24037;49.536;8.500;2024-03-23T06:32:02;8.30;99.90
38241;DHT22;24037;49.536;8.500;2024-03-23T06:34:29;8.30;99.90
38241;DHT22;24037;49.536;8.500;2024-03-23T06:36:56;8.30;99.90
38241;DHT22;24037;49.536;8.500;2024-03-23T06:39:22;8.40;99.90
38241;DHT22;24037;49.536;8.500;2024-03-23T06:41:53;8.40;99.90
38241;DHT22;24037;49.536;8.500;2024-03-23T06:44:19;8.40;99.90
38241;DHT22;24037;49.536;8.500;2024-03-23T06:46:46;8.30;99.90
38241;DHT22;24037;49.536;8.500;2024-03-23T06:49:12;8.30;99.90
38241;DHT22;24037;49.536;8.500;2024-03-23T06:51:38;8.30;99.90
38241;DHT22;24037;49.536;8.500;2024-03-23T06:54:05;8.30;99.90
38241;DHT22;24037;49.536;8.500;2024-03-23T06:56:31;8.30;99.90
38241;DHT22;24037;49.536;8.500;2024-03-23T06:58:59;8.40;99.90
38241;DHT22;24037;49.536;8.500;2024-03-23T07:01:25;8.50;99.90
38241;DHT22;24037;49.536;8.500;2024-03-23T07:03:51;8.60;99.90
38241;DHT22;24037;49.536;8.500;2024-03-23T07:06:17;8.60;99.90
38241;DHT22;24037;49.536;8.500;2024-03-23T07:08:43;8.50;99.90
38241;DHT22;24037;49.536;8.500;2024-03-23T07:11:09;8.50;99.90
38241;DHT22;24037;49.536;8.500;2024-03-23T07:13:36;8.40;99.90
38241;DHT22;24037;49.536;8.500;2024-03-23T07:16:02;8.50;99.90
38241;DHT22;24037;49.536;8.500;2024-03-23T07:18:28;8.40;97.70
38241;DHT22;24037;49.536;8.500;2024-03-23T07:20:55;8.50;96.90
38241;DHT22;24037;49.536;8.500;2024-03-23T07:23:25;8.30;1.00
38241;DHT22;24037;49.536;8.500;2024-03-23T07:26:00;8.40;1.00
38241;DHT22;24037;49.536;8.500;2024-03-23T07:28:27;8.60;1.00
38241;DHT22;24037;49.536;8.500;2024-03-23T07:31:15;8.70;1.00
38241;DHT22;24037;49.536;8.500;2024-03-23T07:33:44;8.60;1.00
38241;DHT22;24037;49.536;8.500;2024-03-23T07:36:10;8.60;1.00
38241;DHT22;24037;49.536;8.500;2024-03-23T07:38:36;8.50;1.00
38241;DHT22;24037;49.536;8.500;2024-03-23T07:41:07;8.30;1.00
38241;DHT22;24037;49.536;8.500;2024-03-23T07:43:33;8.30;1.00
38241;DHT22;24037;49.536;8.500;2024-03-23T07:46:00;8.20;1.00
38241;DHT22;24037;49.536;8.500;2024-03-23T07:48:27;8.20;1.00
38241;DHT22;24037;49.536;8.500;2024-03-23T07:53:26;8.40;1.00
38241;DHT22;24037;49.536;8.500;2024-03-23T07:55:55;8.30;1.00
38241;DHT22;24037;49.536;8.500;2024-03-23T07:58:21;8.40;1.00
38241;DHT22;24037;49.536;8.500;2024-03-23T08:00:48;8.50;1.00
38241;DHT22;24037;49.536;8.500;2024-03-23T08:03:14;8.60;1.00
38241;DHT22;24037;49.536;8.500;2024-03-23T08:05:40;8.60;1.00
38241;DHT22;24037;49.536;8.500;2024-03-23T08:08:06;8.80;1.00
38241;DHT22;24037;49.536;8.500;2024-03-23T08:10:32;9.00;1.00
38241;DHT22;24037;49.536;8.500;2024-03-23T08:12:59;8.90;1.00
38241;DHT22;24037;49.536;8.500;2024-03-23T08:15:26;8.80;1.00
38241;DHT22;24037;49.536;8.500;2024-03-23T08:17:52;8.90;1.00
38241;DHT22;24037;49.536;8.500;2024-03-23T08:20:18;9.00;1.00
38241;DHT22;24037;49.536;8.500;2024-03-23T08:22:44;9.00;1.00
38241;DHT22;24037;49.536;8.500;2024-03-23T08:25:10;9.00;1.00
38241;DHT22;24037;49.536;8.500;2024-03-23T08:27:37;9.00;99.90
38241;DHT22;24037;49.536;8.500;2024-03-23T08:30:03;9.10;99.90
38241;DHT22;24037;49.536;8.500;2024-03-23T08:32:29;9.20;99.90
38241;DHT22;24037;49.536;8.500;2024-03-23T08:34:55;9.60;99.90
38241;DHT22;24037;49.536;8.500;2024-03-23T08:37:21;9.90;99.90
38241;DHT22;24037;49.536;8.500;2024-03-23T08:39:51;10.00;99.90
38241;DHT22;24037;49.536;8.500;2024-03-23T08:42:17;9.70;99.90
38241;DHT22;24037;49.536;8.500;2024-03-23T08:44:43;10.00;99.90
38241;DHT22;24037;49.536;8.500;2024-03-23T08:47:12;10.30;99.90
38241;DHT22;24037;49.536;8.500;2024-03-23T08:49:38;10.30;99.90
38241;DHT22;24037;49.536;8.500;2024-03-23T08:52:05;10.30;99.90
38241;DHT22;24037;49.536;8.500;2024-03-23T08:54:31;10.00;99.90
38241;DHT22;24037;49.536;8.500;2024-03-23T08:56:57;10.30;99.90
38241;DHT22;24037;49.536;8.500;2024-03-23T08:59:23;10.30;99.90
38241;DHT22;24037;49.536;8.500;2024-03-23T09:01:49;10.20;99.90
38241;DHT22;24037;49.536;8.500;2024-03-23T09:04:16;10.50;99.90
38241;DHT22;24037;49.536;8.500;2024-03-23T09:06:45;10.20;99.90
38241;DHT22;24037;49.536;8.500;2024-03-23T09:09:12;10.50;99.90
38241;DHT22;24037;49.536;8.500;2024-03-23T09:11:38;10.70;99.90
38241;DHT22;24037;49.536;8.500;2024-03-23T09:14:04;10.60;99.90
38241;DHT22;24037;49.536;8.500;2024-03-23T09:16:31;10.50;99.90
38241;DHT22;24037;49.536;8.500;2024-03-23T09:18:57;10.20;99.90
38241;DHT22;24037;49.536;8.500;2024-03-23T09:21:23;10.00;99.90
38241;DHT22;24037;49.536;8.500;2024-03-23T09:23:49;10.00;99.90
38241;DHT22;24037;49.536;8.500;2024-03-23T09:26:15;10.00;99.90
38241;DHT22;24037;49.536;8.500;2024-03-23T09:28:41;10.10;99.90
38241;DHT22;24037;49.536;8.500;2024-03-23T09:31:08;10.00;99.90
38241;DHT22;24037;49.536;8.500;2024-03-23T09:33:39;10.00;99.90
38241;DHT22;24037;49.536;8.500;2024-03-23T09:36:06;9.90;99.90
38241;DHT22;24037;49.536;8.500;2024-03-23T09:38:33;9.70;99.90
38241;DHT22;24037;49.536;8.500;2024-03-23T09:41:00;10.00;99.90
38241;DHT22;24037;49.536;8.500;2024-03-23T09:43:26;10.10;99.90
38241;DHT22;24037;49.536;8.500;2024-03-23T09:45:53;10.00;99.90
38241;DHT22;24037;49.536;8.500;2024-03-23T09:48:19;10.20;99.90
38241;DHT22;24037;49.536;8.500;2024-03-23T09:50:46;10.30;99.90
38241;DHT22;24037;49.536;8.500;2024-03-23T09:53:13;10.40;99.90
38241;DHT22;24037;49.536;8.500;2024-03-23T09:55:40;10.30;99.90
38241;DHT22;24037;49.536;8.500;2024-03-23T09:58:07;10.30;99.90
38241;DHT22;24037;49.536;8.500;2024-03-23T10:00:35;10.30;99.90
38241;DHT22;24037;49.536;8.500;2024-03-23T10:03:01;10.40;99.90
38241;DHT22;24037;49.536;8.500;2024-03-23T10:05:31;10.40;99.90
38241;DHT22;24037;49.536;8.500;2024-03-23T10:10:45;10.50;99.90
38241;DHT22;24037;49.536;8.500;2024-03-23T10:13:24;10.70;99.90
38241;DHT22;24037;49.536;8.500;2024-03-23T10:15:58;10.80;99.90
38241;DHT22;24037;49.536;8.500;2024-03-23T10:18:26;10.60;99.90
38241;DHT22;24037;49.536;8.500;2024-03-23T10:21:07;10.60;99.90
38241;DHT22;24037;49.536;8.500;2024-03-23T10:23:35;10.70;99.90
38241;DHT22;24037;49.536;8.500;2024-03-23T10:26:24;10.90;99.90
38241;DHT22;24037;49.536;8.500;2024-03-23T10:28:55;11.00;98.70
38241;DHT22;24037;49.536;8.500;2024-03-23T10:31:24;11.10;99.00
38241;DHT22;24037;49.536;8.500;2024-03-23T10:33:51;10.80;99.00
38241;DHT22;24037;49.536;8.500;2024-03-23T10:36:21;10.70;97.80
38241;DHT22;24037;49.536;8.500;2024-03-23T10:38:50;10.70;97.80
38241;DHT22;24037;49.536;8.500;2024-03-23T10:41:17;10.50;97.00
38241;DHT22;24037;49.536;8.500;2024-03-23T10:43:45;10.40;99.60
38241;DHT22;24037;49.536;8.500;2024-03-23T10:46:12;10.40;97.10
38241;DHT22;24037;49.536;8.500;2024-03-23T10:48:38;10.30;97.10
38241;DHT22;24037;49.536;8.500;2024-03-23T10:51:07;10.40;99.90
38241;DHT22;24037;49.536;8.500;2024-03-23T10:53:35;10.60;95.00
38241;DHT22;24037;49.536;8.500;2024-03-23T10:56:04;10.60;91.20
38241;DHT22;24037;49.536;8.500;2024-03-23T10:58:39;10.70;92.90
38241;DHT22;24037;49.536;8.500;2024-03-23T11:01:06;10.80;91.60
38241;DHT22;24037;49.536;8.500;2024-03-23T11:03:37;10.80;92.50
38241;DHT22;24037;49.536;8.500;2024-03-23T11:06:05;11.10;91.20
38241;DHT22;24037;49.536;8.500;2024-03-23T11:08:32;11.20;90.20
38241;DHT22;24037;49.536;8.500;2024-03-23T11:11:18;11.30;90.20
38241;DHT22;24037;49.536;8.500;2024-03-23T11:13:48;11.30;87.60
38241;DHT22;24037;49.536;8.500;2024-03-23T11:16:22;11.20;81.90
38241;DHT22;24037;49.536;8.500;2024-03-23T11:18:49;11.10;87.40
38241;DHT22;24037;49.536;8.500;2024-03-23T11:24:21;11.00;87.30
38241;DHT22;24037;49.536;8.500;2024-03-23T11:26:48;10.90;87.90
38241;DHT22;24037;49.536;8.500;2024-03-23T11:29:16;10.30;99.90
38241;DHT22;24037;49.536;8.500;2024-03-23T11:31:47;9.00;99.90
38241;DHT22;24037;49.536;8.500;2024-03-23T11:34:15;8.60;99.90
38241;DHT22;24037;49.536;8.500;2024-03-23T11:36:42;8.60;99.90
38241;DHT22;24037;49.536;8.500;2024-03-23T11:39:20;8.40;99.90
38241;DHT22;24037;49.536;8.500;2024-03-23T11:41:54;8.20;99.90
38241;DHT22;24037;49.536;8.500;2024-03-23T11:44:22;7.70;99.90
38241;DHT22;24037;49.536;8.500;2024-03-23T11:46:49;7.50;99.90
38241;DHT22;24037;49.536;8.500;2024-03-23T11:49:26;7.40;99.90
38241;DHT22;24037;49.536;8.500;2024-03-23T11:51:54;7.30;99.90
38241;DHT22;24037;49.536;8.500;2024-03-23T11:54:24;7.20;1.00
38241;DHT22;24037;49.536;8.500;2024-03-23T11:59:37;7.20;99.90
38241;DHT22;24037;49.536;8.500;2024-03-23T12:02:08;7.70;7.40
38241;DHT22;24037;49.536;8.500;2024-03-23T12:04:35;8.00;1.00
38241;DHT22;24037;49.536;8.500;2024-03-23T12:09:42;8.80;1.00
38241;DHT22;24037;49.536;8.500;2024-03-23T12:12:13;9.00;99.90
38241;DHT22;24037;49.536;8.500;2024-03-23T12:14:41;8.80;99.90
38241;DHT22;24037;49.536;8.500;2024-03-23T12:17:10;9.20;99.90
38241;DHT22;24037;49.536;8.500;2024-03-23T12:19:37;9.20;99.90
38241;DHT22;24037;49.536;8.500;2024-03-23T12:22:04;9.10;99.90
38241;DHT22;24037;49.536;8.500;2024-03-23T12:24:31;9.30;99.90
38241;DHT22;24037;49.536;8.500;2024-03-23T12:27:03;9.50;99.90
38241;DHT22;24037;49.536;8.500;2024-03-23T12:29:33;9.40;99.90
38241;DHT22;24037;49.536;8.500;2024-03-23T12:32:03;9.40;99.90
38241;DHT22;24037;49.536;8.500;2024-03-23T12:34:29;9.30;99.90
38241;DHT22;24037;49.536;8.500;2024-03-23T12:36:56;9.10;99.90
38241;DHT22;24037;49.536;8.500;2024-03-23T12:39:23;9.10;99.90
38241;DHT22;24037;49.536;8.500;2024-03-23T12:41:49;9.10;99.90
38241;DHT22;24037;49.536;8.500;2024-03-23T12:44:15;9.20;99.90
38241;DHT22;24037;49.536;8.500;2024-03-23T12:46:42;9.30;99.90
38241;DHT22;24037;49.536;8.500;2024-03-23T12:49:08;9.40;99.90
38241;DHT22;24037;49.536;8.500;2024-03-23T12:51:34;9.40;99.90
38241;DHT22;24037;49.536;8.500;2024-03-23T12:54:01;9.40;99.90
38241;DHT22;24037;49.536;8.500;2024-03-23T12:56:27;9.40;99.90
38241;DHT22;24037;49.536;8.500;2024-03-23T12:58:57;9.40;99.90
38241;DHT22;24037;49.536;8.500;2024-03-23T13:01:26;9.40;99.90
38241;DHT22;24037;49.536;8.500;2024-03-23T13:03:52;9.10;99.90
38241;DHT22;24037;49.536;8.500;2024-03-23T13:06:19;8.50;99.90
38241;DHT22;24037;49.536;8.500;2024-03-23T13:08:46;8.20;99.90
38241;DHT22;24037;49.536;8.500;2024-03-23T13:11:13;7.80;99.90
38241;DHT22;24037;49.536;8.500;2024-03-23T13:13:40;7.70;99.90
38241;DHT22;24037;49.536;8.500;2024-03-23T13:16:08;7.80;99.90
38241;DHT22;24037;49.536;8.500;2024-03-23T13:18:34;8.00;99.90
38241;DHT22;24037;49.536;8.500;2024-03-23T13:21:00;8.00;99.90
38241;DHT22;24037;49.536;8.500;2024-03-23T13:23:27;8.20;99.90
38241;DHT22;24037;49.536;8.500;2024-03-23T13:25:54;8.50;99.90
38241;DHT22;24037;49.536;8.500;2024-03-23T13:28:21;8.90;99.90
38241;DHT22;24037;49.536;8.500;2024-03-23T13:30:57;9.00;99.90
38241;DHT22;24037;49.536;8.500;2024-03-23T13:33:23;8.80;99.90
38241;DHT22;24037;49.536;8.500;2024-03-23T13:35:54;8.80;99.90
38241;DHT22;24037;49.536;8.500;2024-03-23T13:38:21;8.60;99.90
38241;DHT22;24037;49.536;8.500;2024-03-23T13:41:00;8.70;99.90
38241;DHT22;24037;49.536;8.500;2024-03-23T13:43:27;8.90;99.90
38241;DHT22;24037;49.536;8.500;2024-03-23T13:45:58;9.50;99.90
38241;DHT22;24037;49.536;8.500;2024-03-23T13:48:26;9.80;99.90
38241;DHT22;24037;49.536;8.500;2024-03-23T13:53:25;10.40;99.90
38241;DHT22;24037;49.536;8.500;2024-03-23T13:55:51;10.10;99.90
38241;DHT22;24037;49.536;8.500;2024-03-23T13:58:17;10.30;99.90
38241;DHT22;24037;49.536;8.500;2024-03-23T14:00:44;10.50;99.90
38241;DHT22;24037;49.536;8.500;2024-03-23T14:03:13;11.10;99.90
38241;DHT22;24037;49.536;8.500;2024-03-23T14:05:40;11.60;99.90
38241;DHT22;24037;49.536;8.500;2024-03-23T14:08:10;11.50;99.90
38241;DHT22;24037;49.536;8.500;2024-03-23T14:10:40;10.80;99.90
38241;DHT22;24037;49.536;8.500;2024-03-23T14:13:06;10.50;99.90
38241;DHT22;24037;49.536;8.500;2024-03-23T14:15:32;10.40;99.90
38241;DHT22;24037;49.536;8.500;2024-03-23T14:17:59;10.90;99.90
38241;DHT22;24037;49.536;8.500;2024-03-23T14:20:25;11.50;99.90
38241;DHT22;24037;49.536;8.500;2024-03-23T14:22:52;11.30;99.90
38241;DHT22;24037;49.536;8.500;2024-03-23T14:25:18;11.10;99.90
38241;DHT22;24037;49.536;8.500;2024-03-23T14:27:45;10.80;99.90
38241;DHT22;24037;49.536;8.500;2024-03-23T14:30:12;10.60;99.90
38241;DHT22;24037;49.536;8.500;2024-03-23T14:32:39;9.30;1.00
38241;DHT22;24037;49.536;8.500;2024-03-23T14:35:06;8.40;1.00
38241;DHT22;24037;49.536;8.500;2024-03-23T14:37:36;8.10;1.00
38241;DHT22;24037;49.536;8.500;2024-03-23T14:40:02;8.10;1.00
38241;DHT22;24037;49.536;8.500;2024-03-23T14:42:29;8.40;1.00
38241;DHT22;24037;49.536;8.500;2024-03-23T14:44:56;8.90;1.00
38241;DHT22;24037;49.536;8.500;2024-03-23T14:47:22;9.30;1.00
38241;DHT22;24037;49.536;8.500;2024-03-23T14:49:48;9.60;99.90
38241;DHT22;24037;49.536;8.500;2024-03-23T14:52:19;9.50;99.90
38241;DHT22;24037;49.536;8.500;2024-03-23T14:54:46;9.70;99.90
38241;DHT22;24037;49.536;8.500;2024-03-23T14:57:12;9.80;99.90
38241;DHT22;24037;49.536;8.500;2024-03-23T14:59:39;10.00;15.90
38241;DHT22;24037;49.536;8.500;2024-03-23T15:02:07;9.90;1.00
38241;DHT22;24037;49.536;8.500;2024-03-23T15:04:33;10.00;8.70
38241;DHT22;24037;49.536;8.500;2024-03-23T15:07:00;10.00;1.00
38241;DHT22;24037;49.536;8.500;2024-03-23T15:09:26;9.90;99.90
38241;DHT22;24037;49.536;8.500;2024-03-23T15:11:52;9.90;1.00
38241;DHT22;24037;49.536;8.500;2024-03-23T15:14:21;9.90;99.90
38241;DHT22;24037;49.536;8.500;2024-03-23T15:16:47;9.90;99.90
38241;DHT22;24037;49.536;8.500;2024-03-23T15:19:15;9.80;99.90
38241;DHT22;24037;49.536;8.500;2024-03-23T15:21:43;9.60;99.90
38241;DHT22;24037;49.536;8.500;2024-03-23T15:24:10;9.60;99.90
38241;DHT22;24037;49.536;8.500;2024-03-23T15:26:37;9.40;99.90
38241;DHT22;24037;49.536;8.500;2024-03-23T15:29:04;8.80;99.90
38241;DHT22;24037;49.536;8.500;2024-03-23T15:31:37;8.80;99.90
38241;DHT22;24037;49.536;8.500;2024-03-23T15:34:04;8.80;99.90
38241;DHT22;24037;49.536;8.500;2024-03-23T15:36:30;8.70;99.90
38241;DHT22;24037;49.536;8.500;2024-03-23T15:38:57;8.60;99.90
38241;DHT22;24037;49.536;8.500;2024-03-23T15:41:23;8.60;99.90
38241;DHT22;24037;49.536;8.500;2024-03-23T15:43:51;8.60;99.90
38241;DHT22;24037;49.536;8.500;2024-03-23T15:46:17;8.60;99.90
38241;DHT22;24037;49.536;8.500;2024-03-23T15:48:45;8.50;99.90
38241;DHT22;24037;49.536;8.500;2024-03-23T15:51:13;8.50;99.90
38241;DHT22;24037;49.536;8.500;2024-03-23T15:53:40;8.50;99.90
38241;DHT22;24037;49.536;8.500;2024-03-23T15:56:06;8.00;99.90
38241;DHT22;24037;49.536;8.500;2024-03-23T15:58:33;7.70;1.00
38241;DHT22;24037;49.536;8.500;2024-03-23T16:01:08;7.80;1.00
38241;DHT22;24037;49.536;8.500;2024-03-23T16:03:37;8.20;1.00
38241;DHT22;24037;49.536;8.500;2024-03-23T16:06:05;8.20;99.90
38241;DHT22;24037;49.536;8.500;2024-03-23T16:08:31;8.30;1.00
38241;DHT22;24037;49.536;8.500;2024-03-23T16:11:01;8.30;1.00
38241;DHT22;24037;49.536;8.500;2024-03-23T16:13:28;8.40;1.00
38241;DHT22;24037;49.536;8.500;2024-03-23T16:16:02;7.90;1.00
38241;DHT22;24037;49.536;8.500;2024-03-23T16:18:37;7.70;1.00
38241;DHT22;24037;49.536;8.500;2024-03-23T16:21:06;7.60;1.00
38241;DHT22;24037;49.536;8.500;2024-03-23T16:23:33;7.60;1.00
38241;DHT22;24037;49.536;8.500;2024-03-23T16:26:00;7.60;1.00
38241;DHT22;24037;49.536;8.500;2024-03-23T16:28:28;7.70;1.00
38241;DHT22;24037;49.536;8.500;2024-03-23T16:30:56;7.70;1.00
38241;DHT22;24037;49.536;8.500;2024-03-23T16:33:24;7.70;1.00
38241;DHT22;24037;49.536;8.500;2024-03-23T16:36:07;7.70;99.90
38241;DHT22;24037;49.536;8.500;2024-03-23T16:38:39;7.70;99.90
38241;DHT22;24037;49.536;8.500;2024-03-23T16:41:07;7.70;99.90
38241;DHT22;24037;49.536;8.500;2024-03-23T16:43:35;7.60;99.90
38241;DHT22;24037;49.536;8.500;2024-03-23T16:46:05;7.60;99.90
38241;DHT22;24037;49.536;8.500;2024-03-23T16:48:32;7.50;99.90
38241;DHT22;24037;49.536;8.500;2024-03-23T16:51:00;7.40;99.90
38241;DHT22;24037;49.536;8.500;2024-03-23T16:53:26;7.40;99.90